sensor_id;sensor_type;location;lat;lon;timestamp;pressure;altitude;pressure_sealevel;temperature
40245;BMP280;25963;42.694;23.600;2024-01-30T00:00:37;97113.97;;;-1.92
40245;BMP280;25963;42.694;23.600;2024-01-30T00:03:03;97122.91;;;-1.93
40245;BMP280;25963;42.694;23.600;2024-01-30T00:05:28;97121.31;;;-1.98
40245;BMP280;25963;42.694;23.600;2024-01-30T00:07:53;97130.97;;;-2.02
40245;BMP280;25963;42.694;23.600;2024-01-30T00:10:19;97124.88;;;-2.06
40245;BMP280;25963;42.694;23.600;2024-01-30T00:12:44;97133.75;;;-2.10
40245;BMP280;25963;42.694;23.600;2024-01-30T00:15:10;97128.00;;;-2.16
40245;BMP280;25963;42.694;23.600;2024-01-30T00:17:38;97131.28;;;-2.19
40245;BMP280;25963;42.694;23.600;2024-01-30T00:20:04;97130.53;;;-2.32
40245;BMP280;25963;42.694;23.600;2024-01-30T00:22:34;97022.59;;;-3.03
40245;BMP280;25963;42.694;23.600;2024-01-30T00:25:00;97131.31;;;-2.31
40245;BMP280;25963;42.694;23.600;2024-01-30T00:27:26;97063.72;;;-2.88
40245;BMP280;25963;42.694;23.600;2024-01-30T00:29:52;97109.97;;;-2.49
40245;BMP280;25963;42.694;23.600;2024-01-30T00:32:17;97088.84;;;-2.68
40245;BMP280;25963;42.694;23.600;2024-01-30T00:34:44;97127.25;;;-2.44
40245;BMP280;25963;42.694;23.600;2024-01-30T00:37:09;97133.50;;;-2.49
40245;BMP280;25963;42.694;23.600;2024-01-30T00:39:35;97132.72;;;-2.49
40245;BMP280;25963;42.694;23.600;2024-01-30T00:42:00;97094.81;;;-2.83
40245;BMP280;25963;42.694;23.600;2024-01-30T00:44:26;97131.19;;;-2.62
40245;BMP280;25963;42.694;23.600;2024-01-30T00:46:51;97118.97;;;-2.74
40245;BMP280;25963;42.694;23.600;2024-01-30T00:49:17;97122.75;;;-2.71
40245;BMP280;25963;42.694;23.600;2024-01-30T00:51:42;97128.75;;;-2.71
40245;BMP280;25963;42.694;23.600;2024-01-30T00:54:07;97123.19;;;-2.69
40245;BMP280;25963;42.694;23.600;2024-01-30T00:56:33;97121.25;;;-2.72
40245;BMP280;25963;42.694;23.600;2024-01-30T00:58:58;97120.72;;;-2.78
40245;BMP280;25963;42.694;23.600;2024-01-30T01:01:24;97128.97;;;-2.76
40245;BMP280;25963;42.694;23.600;2024-01-30T01:03:49;97129.63;;;-2.79
40245;BMP280;25963;42.694;23.600;2024-01-30T01:06:15;97116.38;;;-2.86
40245;BMP280;25963;42.694;23.600;2024-01-30T01:08:40;97119.25;;;-2.91
40245;BMP280;25963;42.694;23.600;2024-01-30T01:11:06;97114.00;;;-2.91
40245;BMP280;25963;42.694;23.600;2024-01-30T01:13:31;97112.94;;;-2.90
40245;BMP280;25963;42.694;23.600;2024-01-30T01:15:56;97112.47;;;-2.92
40245;BMP280;25963;42.694;23.600;2024-01-30T01:18:22;97113.34;;;-3.00
40245;BMP280;25963;42.694;23.600;2024-01-30T01:20:47;97104.69;;;-3.04
40245;BMP280;25963;42.694;23.600;2024-01-30T01:23:13;97104.56;;;-3.08
40245;BMP280;25963;42.694;23.600;2024-01-30T01:25:38;97114.78;;;-3.03
40245;BMP280;25963;42.694;23.600;2024-01-30T01:28:04;97115.13;;;-3.04
40245;BMP280;25963;42.694;23.600;2024-01-30T01:30:29;97104.00;;;-3.01
40245;BMP280;25963;42.694;23.600;2024-01-30T01:32:55;97111.25;;;-2.95
40245;BMP280;25963;42.694;23.600;2024-01-30T01:35:22;97105.84;;;-2.90
40245;BMP280;25963;42.694;23.600;2024-01-30T01:37:50;97115.19;;;-2.89
40245;BMP280;25963;42.694;23.600;2024-01-30T01:40:22;97117.03;;;-2.89
40245;BMP280;25963;42.694;23.600;2024-01-30T01:42:47;97116.38;;;-2.98
40245;BMP280;25963;42.694;23.600;2024-01-30T01:45:13;97114.22;;;-2.96
40245;BMP280;25963;42.694;23.600;2024-01-30T01:47:39;97120.00;;;-2.91
40245;BMP280;25963;42.694;23.600;2024-01-30T01:50:04;97129.44;;;-2.86
40245;BMP280;25963;42.694;23.600;2024-01-30T01:52:30;97135.53;;;-2.82
40245;BMP280;25963;42.694;23.600;2024-01-30T01:54:55;97129.63;;;-2.79
40245;BMP280;25963;42.694;23.600;2024-01-30T01:57:21;97126.81;;;-2.74
40245;BMP280;25963;42.694;23.600;2024-01-30T01:59:47;97128.31;;;-2.73
40245;BMP280;25963;42.694;23.600;2024-01-30T02:02:13;97124.63;;;-2.72
40245;BMP280;25963;42.694;23.600;2024-01-30T02:04:59;97140.16;;;-2.63
40245;BMP280;25963;42.694;23.600;2024-01-30T02:07:24;97131.13;;;-2.66
40245;BMP280;25963;42.694;23.600;2024-01-30T02:09:50;97138.22;;;-2.66
40245;BMP280;25963;42.694;23.600;2024-01-30T02:12:15;97137.25;;;-2.74
40245;BMP280;25963;42.694;23.600;2024-01-30T02:14:47;97129.84;;;-2.72
40245;BMP280;25963;42.694;23.600;2024-01-30T02:17:13;97082.44;;;-2.98
40245;BMP280;25963;42.694;23.600;2024-01-30T02:19:39;97131.75;;;-2.57
40245;BMP280;25963;42.694;23.600;2024-01-30T02:22:05;97130.63;;;-2.44
40245;BMP280;25963;42.694;23.600;2024-01-30T02:24:31;97138.88;;;-2.42
40245;BMP280;25963;42.694;23.600;2024-01-30T02:26:56;97120.59;;;-2.42
40245;BMP280;25963;42.694;23.600;2024-01-30T02:29:22;97125.81;;;-2.42
40245;BMP280;25963;42.694;23.600;2024-01-30T02:31:47;97133.31;;;-2.40
40245;BMP280;25963;42.694;23.600;2024-01-30T02:34:13;97070.28;;;-2.78
40245;BMP280;25963;42.694;23.600;2024-01-30T02:36:42;97125.66;;;-2.33
40245;BMP280;25963;42.694;23.600;2024-01-30T02:39:08;97130.13;;;-2.34
40245;BMP280;25963;42.694;23.600;2024-01-30T02:41:33;97079.31;;;-2.76
40245;BMP280;25963;42.694;23.600;2024-01-30T02:43:58;97135.34;;;-2.34
40245;BMP280;25963;42.694;23.600;2024-01-30T02:46:24;97126.75;;;-2.34
40245;BMP280;25963;42.694;23.600;2024-01-30T02:48:49;97126.44;;;-2.33
40245;BMP280;25963;42.694;23.600;2024-01-30T02:51:15;97119.34;;;-2.32
40245;BMP280;25963;42.694;23.600;2024-01-30T02:53:40;97130.31;;;-2.26
40245;BMP280;25963;42.694;23.600;2024-01-30T02:56:06;97127.81;;;-2.23
40245;BMP280;25963;42.694;23.600;2024-01-30T02:58:35;97129.44;;;-2.18
40245;BMP280;25963;42.694;23.600;2024-01-30T03:01:00;97119.03;;;-2.15
40245;BMP280;25963;42.694;23.600;2024-01-30T03:03:25;97123.59;;;-2.12
40245;BMP280;25963;42.694;23.600;2024-01-30T03:05:51;97113.63;;;-2.06
40245;BMP280;25963;42.694;23.600;2024-01-30T03:08:16;97126.97;;;-1.96
40245;BMP280;25963;42.694;23.600;2024-01-30T03:10:41;97118.81;;;-1.94
40245;BMP280;25963;42.694;23.600;2024-01-30T03:13:07;97119.88;;;-1.95
40245;BMP280;25963;42.694;23.600;2024-01-30T03:15:32;97125.78;;;-1.98
40245;BMP280;25963;42.694;23.600;2024-01-30T03:17:57;97114.50;;;-2.02
40245;BMP280;25963;42.694;23.600;2024-01-30T03:20:23;97121.16;;;-2.05
40245;BMP280;25963;42.694;23.600;2024-01-30T03:22:49;97115.16;;;-2.05
40245;BMP280;25963;42.694;23.600;2024-01-30T03:25:14;97130.47;;;-2.07
40245;BMP280;25963;42.694;23.600;2024-01-30T03:27:40;97115.06;;;-2.09
40245;BMP280;25963;42.694;23.600;2024-01-30T03:30:06;97111.69;;;-2.09
40245;BMP280;25963;42.694;23.600;2024-01-30T03:32:31;97111.28;;;-2.11
40245;BMP280;25963;42.694;23.600;2024-01-30T03:34:57;97109.69;;;-2.16
40245;BMP280;25963;42.694;23.600;2024-01-30T03:37:23;97112.22;;;-2.19
40245;BMP280;25963;42.694;23.600;2024-01-30T03:39:48;97077.06;;;-2.50
40245;BMP280;25963;42.694;23.600;2024-01-30T03:42:14;97105.44;;;-2.20
40245;BMP280;25963;42.694;23.600;2024-01-30T03:44:39;97096.31;;;-2.26
40245;BMP280;25963;42.694;23.600;2024-01-30T03:47:04;97035.59;;;-2.63
40245;BMP280;25963;42.694;23.600;2024-01-30T03:49:30;97101.66;;;-2.23
40245;BMP280;25963;42.694;23.600;2024-01-30T03:51:55;97101.66;;;-2.23
40245;BMP280;25963;42.694;23.600;2024-01-30T03:54:21;97100.88;;;-2.23
40245;BMP280;25963;42.694;23.600;2024-01-30T03:56:46;97083.91;;;-2.30
40245;BMP280;25963;42.694;23.600;2024-01-30T03:59:12;97105.97;;;-2.15
40245;BMP280;25963;42.694;23.600;2024-01-30T04:01:37;97102.66;;;-2.12
40245;BMP280;25963;42.694;23.600;2024-01-30T04:04:03;97098.88;;;-2.14
40245;BMP280;25963;42.694;23.600;2024-01-30T04:06:28;97100.72;;;-2.15
40245;BMP280;25963;42.694;23.600;2024-01-30T04:08:53;97094.06;;;-2.12
40245;BMP280;25963;42.694;23.600;2024-01-30T04:11:19;97113.91;;;-2.11
40245;BMP280;25963;42.694;23.600;2024-01-30T04:13:47;97102.19;;;-2.02
40245;BMP280;25963;42.694;23.600;2024-01-30T04:16:23;97094.50;;;-2.10
40245;BMP280;25963;42.694;23.600;2024-01-30T04:18:48;97111.88;;;-2.02
40245;BMP280;25963;42.694;23.600;2024-01-30T04:21:14;97108.41;;;-2.06
40245;BMP280;25963;42.694;23.600;2024-01-30T04:23:40;97105.69;;;-2.10
40245;BMP280;25963;42.694;23.600;2024-01-30T04:26:06;97099.63;;;-2.14
40245;BMP280;25963;42.694;23.600;2024-01-30T04:28:32;97116.09;;;-2.13
40245;BMP280;25963;42.694;23.600;2024-01-30T04:30:57;96998.56;;;-2.81
40245;BMP280;25963;42.694;23.600;2024-01-30T04:33:23;97113.31;;;-2.05
40245;BMP280;25963;42.694;23.600;2024-01-30T04:35:48;97111.88;;;-2.02
40245;BMP280;25963;42.694;23.600;2024-01-30T04:38:13;97112.56;;;-2.05
40245;BMP280;25963;42.694;23.600;2024-01-30T04:40:40;97129.69;;;-2.08
40245;BMP280;25963;42.694;23.600;2024-01-30T04:43:05;97121.31;;;-2.13
40245;BMP280;25963;42.694;23.600;2024-01-30T04:45:31;97040.59;;;-2.58
40245;BMP280;25963;42.694;23.600;2024-01-30T04:47:56;97118.22;;;-2.03
40245;BMP280;25963;42.694;23.600;2024-01-30T04:50:23;97129.19;;;-1.98
40245;BMP280;25963;42.694;23.600;2024-01-30T04:52:48;97134.00;;;-2.00
40245;BMP280;25963;42.694;23.600;2024-01-30T04:55:14;97129.28;;;-1.94
40245;BMP280;25963;42.694;23.600;2024-01-30T04:57:39;97124.34;;;-1.96
40245;BMP280;25963;42.694;23.600;2024-01-30T05:00:05;97060.53;;;-2.38
40245;BMP280;25963;42.694;23.600;2024-01-30T05:02:31;97138.41;;;-1.88
40245;BMP280;25963;42.694;23.600;2024-01-30T05:04:56;97143.63;;;-1.88
40245;BMP280;25963;42.694;23.600;2024-01-30T05:07:24;97143.63;;;-1.88
40245;BMP280;25963;42.694;23.600;2024-01-30T05:09:49;97052.50;;;-2.45
40245;BMP280;25963;42.694;23.600;2024-01-30T05:12:15;97132.97;;;-1.95
40245;BMP280;25963;42.694;23.600;2024-01-30T05:14:40;97146.41;;;-1.97
40245;BMP280;25963;42.694;23.600;2024-01-30T05:17:05;97129.53;;;-1.99
40245;BMP280;25963;42.694;23.600;2024-01-30T05:19:31;97132.81;;;-2.02
40245;BMP280;25963;42.694;23.600;2024-01-30T05:21:56;97135.75;;;-2.04
40245;BMP280;25963;42.694;23.600;2024-01-30T05:24:21;97136.25;;;-1.98
40245;BMP280;25963;42.694;23.600;2024-01-30T05:26:47;97061.13;;;-2.45
40245;BMP280;25963;42.694;23.600;2024-01-30T05:29:13;97135.84;;;-2.00
40245;BMP280;25963;42.694;23.600;2024-01-30T05:31:38;97133.06;;;-2.07
40245;BMP280;25963;42.694;23.600;2024-01-30T05:34:04;97147.91;;;-1.96
40245;BMP280;25963;42.694;23.600;2024-01-30T05:36:29;97140.06;;;-1.96
40245;BMP280;25963;42.694;23.600;2024-01-30T05:38:56;97152.06;;;-1.95
40245;BMP280;25963;42.694;23.600;2024-01-30T05:41:21;97146.47;;;-1.93
40245;BMP280;25963;42.694;23.600;2024-01-30T05:43:47;97146.47;;;-1.93
40245;BMP280;25963;42.694;23.600;2024-01-30T05:46:13;97149.84;;;-1.93
40245;BMP280;25963;42.694;23.600;2024-01-30T05:48:38;97138.13;;;-1.99
40245;BMP280;25963;42.694;23.600;2024-01-30T05:51:04;97150.38;;;-2.03
40245;BMP280;25963;42.694;23.600;2024-01-30T05:53:29;97149.59;;;-2.03
40245;BMP280;25963;42.694;23.600;2024-01-30T05:55:55;97152.97;;;-2.03
40245;BMP280;25963;42.694;23.600;2024-01-30T05:58:20;97157.88;;;-2.01
40245;BMP280;25963;42.694;23.600;2024-01-30T06:00:46;97145.03;;;-2.06
40245;BMP280;25963;42.694;23.600;2024-01-30T06:03:12;97147.44;;;-1.86
40245;BMP280;25963;42.694;23.600;2024-01-30T06:05:37;97133.69;;;-1.83
40245;BMP280;25963;42.694;23.600;2024-01-30T06:08:03;97154.91;;;-1.37
40245;BMP280;25963;42.694;23.600;2024-01-30T06:10:28;97057.84;;;-1.79
40245;BMP280;25963;42.694;23.600;2024-01-30T06:12:54;97156.88;;;-0.99
40245;BMP280;25963;42.694;23.600;2024-01-30T06:15:19;97141.72;;;-0.90
40245;BMP280;25963;42.694;23.600;2024-01-30T06:17:44;97131.41;;;-0.83
40245;BMP280;25963;42.694;23.600;2024-01-30T06:20:10;97141.88;;;-0.64
40245;BMP280;25963;42.694;23.600;2024-01-30T06:22:35;97159.00;;;-0.51
40245;BMP280;25963;42.694;23.600;2024-01-30T06:25:00;97147.03;;;-0.48
40245;BMP280;25963;42.694;23.600;2024-01-30T06:27:26;97150.78;;;-0.30
40245;BMP280;25963;42.694;23.600;2024-01-30T06:29:52;97151.78;;;-0.16
40245;BMP280;25963;42.694;23.600;2024-01-30T06:32:17;97097.91;;;-0.51
40245;BMP280;25963;42.694;23.600;2024-01-30T06:34:42;97149.00;;;-0.04
40245;BMP280;25963;42.694;23.600;2024-01-30T06:37:09;97151.44;;;0.09
40245;BMP280;25963;42.694;23.600;2024-01-30T06:39:35;97085.81;;;-0.37
40245;BMP280;25963;42.694;23.600;2024-01-30T06:42:00;97163.53;;;0.13
40245;BMP280;25963;42.694;23.600;2024-01-30T06:44:26;97162.72;;;0.09
40245;BMP280;25963;42.694;23.600;2024-01-30T06:46:51;97151.34;;;0.02
40245;BMP280;25963;42.694;23.600;2024-01-30T06:49:16;97158.06;;;-0.01
40245;BMP280;25963;42.694;23.600;2024-01-30T06:51:43;97161.84;;;0.02
40245;BMP280;25963;42.694;23.600;2024-01-30T06:54:08;97168.47;;;-0.05
40245;BMP280;25963;42.694;23.600;2024-01-30T06:56:34;97166.25;;;-0.03
40245;BMP280;25963;42.694;23.600;2024-01-30T06:58:59;97173.72;;;-0.05
40245;BMP280;25963;42.694;23.600;2024-01-30T07:01:28;97172.94;;;-0.09
40245;BMP280;25963;42.694;23.600;2024-01-30T07:03:54;97159.66;;;-0.16
40245;BMP280;25963;42.694;23.600;2024-01-30T07:06:20;97081.13;;;-0.66
40245;BMP280;25963;42.694;23.600;2024-01-30T07:08:45;97122.13;;;-0.39
40245;BMP280;25963;42.694;23.600;2024-01-30T07:11:18;97173.41;;;-0.03
40245;BMP280;25963;42.694;23.600;2024-01-30T07:13:44;97169.25;;;-0.04
40245;BMP280;25963;42.694;23.600;2024-01-30T07:16:09;97161.06;;;0.01
40245;BMP280;25963;42.694;23.600;2024-01-30T07:18:35;97145.22;;;-0.06
40245;BMP280;25963;42.694;23.600;2024-01-30T07:21:00;97166.81;;;0.07
40245;BMP280;25963;42.694;23.600;2024-01-30T07:23:26;97165.81;;;0.15
40245;BMP280;25963;42.694;23.600;2024-01-30T07:25:51;97174.09;;;0.17
40245;BMP280;25963;42.694;23.600;2024-01-30T07:28:18;97167.88;;;0.25
40245;BMP280;25963;42.694;23.600;2024-01-30T07:30:43;97164.13;;;0.26
40245;BMP280;25963;42.694;23.600;2024-01-30T07:33:09;97164.94;;;0.33
40245;BMP280;25963;42.694;23.600;2024-01-30T07:35:35;97167.66;;;0.37
40245;BMP280;25963;42.694;23.600;2024-01-30T07:38:00;97169.56;;;0.40
40245;BMP280;25963;42.694;23.600;2024-01-30T07:40:26;97161.00;;;0.43
40245;BMP280;25963;42.694;23.600;2024-01-30T07:42:53;97158.75;;;0.45
40245;BMP280;25963;42.694;23.600;2024-01-30T07:45:19;97160.00;;;0.51
40245;BMP280;25963;42.694;23.600;2024-01-30T07:47:48;97160.69;;;0.48
40245;BMP280;25963;42.694;23.600;2024-01-30T07:50:14;97173.22;;;0.58
40245;BMP280;25963;42.694;23.600;2024-01-30T07:52:39;97166.09;;;0.58
40245;BMP280;25963;42.694;23.600;2024-01-30T07:55:23;97161.66;;;0.63
40245;BMP280;25963;42.694;23.600;2024-01-30T07:57:56;97171.47;;;0.66
40245;BMP280;25963;42.694;23.600;2024-01-30T08:00:22;97111.28;;;0.31
40245;BMP280;25963;42.694;23.600;2024-01-30T08:02:48;97163.59;;;0.66
40245;BMP280;25963;42.694;23.600;2024-01-30T08:05:13;97154.13;;;0.61
40245;BMP280;25963;42.694;23.600;2024-01-30T08:07:41;97165.44;;;0.65
40245;BMP280;25963;42.694;23.600;2024-01-30T08:10:08;97165.16;;;0.70
40245;BMP280;25963;42.694;23.600;2024-01-30T08:12:33;97120.56;;;0.51
40245;BMP280;25963;42.694;23.600;2024-01-30T08:14:59;97061.69;;;0.26
40245;BMP280;25963;42.694;23.600;2024-01-30T08:17:24;97164.84;;;1.01
40245;BMP280;25963;42.694;23.600;2024-01-30T08:19:49;97156.63;;;1.06
40245;BMP280;25963;42.694;23.600;2024-01-30T08:22:15;97145.03;;;1.07
40245;BMP280;25963;42.694;23.600;2024-01-30T08:24:41;97164.28;;;1.15
40245;BMP280;25963;42.694;23.600;2024-01-30T08:27:06;97156.06;;;1.20
40245;BMP280;25963;42.694;23.600;2024-01-30T08:29:35;97158.75;;;1.24
40245;BMP280;25963;42.694;23.600;2024-01-30T08:32:00;97135.50;;;1.29
40245;BMP280;25963;42.694;23.600;2024-01-30T08:34:25;97109.38;;;1.13
40245;BMP280;25963;42.694;23.600;2024-01-30T08:36:51;97154.91;;;1.51
40245;BMP280;25963;42.694;23.600;2024-01-30T08:39:16;97157.63;;;1.61
40245;BMP280;25963;42.694;23.600;2024-01-30T08:41:42;97174.84;;;1.52
40245;BMP280;25963;42.694;23.600;2024-01-30T08:44:07;97159.78;;;1.52
40245;BMP280;25963;42.694;23.600;2024-01-30T08:46:33;97180.09;;;1.52
40245;BMP280;25963;42.694;23.600;2024-01-30T08:48:59;97178.13;;;1.45
40245;BMP280;25963;42.694;23.600;2024-01-30T08:51:24;97177.03;;;1.46
40245;BMP280;25963;42.694;23.600;2024-01-30T08:53:50;97186.09;;;1.52
40245;BMP280;25963;42.694;23.600;2024-01-30T08:56:16;97181.97;;;1.51
40245;BMP280;25963;42.694;23.600;2024-01-30T08:58:42;97186.44;;;1.47
40245;BMP280;25963;42.694;23.600;2024-01-30T09:01:07;97179.41;;;1.25
40245;BMP280;25963;42.694;23.600;2024-01-30T09:03:32;97172.59;;;1.20
40245;BMP280;25963;42.694;23.600;2024-01-30T09:05:58;97131.94;;;1.14
40245;BMP280;25963;42.694;23.600;2024-01-30T09:08:23;97173.09;;;1.63
40245;BMP280;25963;42.694;23.600;2024-01-30T09:10:49;97173.16;;;1.70
40245;BMP280;25963;42.694;23.600;2024-01-30T09:13:15;97046.72;;;0.89
40245;BMP280;25963;42.694;23.600;2024-01-30T09:15:41;97165.38;;;1.80
40245;BMP280;25963;42.694;23.600;2024-01-30T09:18:07;97159.78;;;1.89
40245;BMP280;25963;42.694;23.600;2024-01-30T09:20:32;97165.84;;;1.93
40245;BMP280;25963;42.694;23.600;2024-01-30T09:22:58;97166.69;;;2.01
40245;BMP280;25963;42.694;23.600;2024-01-30T09:25:24;97162.84;;;1.95
40245;BMP280;25963;42.694;23.600;2024-01-30T09:27:49;97111.34;;;1.57
40245;BMP280;25963;42.694;23.600;2024-01-30T09:30:15;97161.66;;;1.89
40245;BMP280;25963;42.694;23.600;2024-01-30T09:32:40;97129.19;;;1.74
40245;BMP280;25963;42.694;23.600;2024-01-30T09:35:06;97166.72;;;2.04
40245;BMP280;25963;42.694;23.600;2024-01-30T09:37:31;97168.69;;;2.14
40245;BMP280;25963;42.694;23.600;2024-01-30T09:39:57;97158.41;;;2.02
40245;BMP280;25963;42.694;23.600;2024-01-30T09:42:34;97120.00;;;1.57
40245;BMP280;25963;42.694;23.600;2024-01-30T09:45:06;97158.72;;;1.97
40245;BMP280;25963;42.694;23.600;2024-01-30T09:47:42;97147.13;;;2.05
40245;BMP280;25963;42.694;23.600;2024-01-30T09:50:09;97101.41;;;1.80
40245;BMP280;25963;42.694;23.600;2024-01-30T09:52:34;97152.63;;;2.33
40245;BMP280;25963;42.694;23.600;2024-01-30T09:55:00;97145.06;;;2.32
40245;BMP280;25963;42.694;23.600;2024-01-30T09:57:26;97147.66;;;2.21
40245;BMP280;25963;42.694;23.600;2024-01-30T09:59:52;97142.09;;;2.33
40245;BMP280;25963;42.694;23.600;2024-01-30T10:02:19;97142.47;;;2.35
40245;BMP280;25963;42.694;23.600;2024-01-30T10:04:49;97137.53;;;2.27
40245;BMP280;25963;42.694;23.600;2024-01-30T10:07:15;97141.47;;;2.51
40245;BMP280;25963;42.694;23.600;2024-01-30T10:09:41;97138.50;;;2.56
40245;BMP280;25963;42.694;23.600;2024-01-30T10:12:07;97081.47;;;2.26
40245;BMP280;25963;42.694;23.600;2024-01-30T10:14:33;97146.78;;;2.58
40245;BMP280;25963;42.694;23.600;2024-01-30T10:16:59;97143.03;;;2.66
40245;BMP280;25963;42.694;23.600;2024-01-30T10:19:24;97088.72;;;2.47
40245;BMP280;25963;42.694;23.600;2024-01-30T10:21:50;97139.31;;;2.74
40245;BMP280;25963;42.694;23.600;2024-01-30T10:24:15;97150.66;;;2.78
40245;BMP280;25963;42.694;23.600;2024-01-30T10:26:43;97146.47;;;2.70
40245;BMP280;25963;42.694;23.600;2024-01-30T10:29:09;97139.63;;;2.65
40245;BMP280;25963;42.694;23.600;2024-01-30T10:31:34;97133.34;;;2.80
40245;BMP280;25963;42.694;23.600;2024-01-30T10:34:00;97134.03;;;2.70
40245;BMP280;25963;42.694;23.600;2024-01-30T10:36:28;97139.41;;;2.88
40245;BMP280;25963;42.694;23.600;2024-01-30T10:38:59;97143.41;;;2.61
40245;BMP280;25963;42.694;23.600;2024-01-30T10:41:26;97135.72;;;2.38
40245;BMP280;25963;42.694;23.600;2024-01-30T10:44:02;97076.41;;;2.04
40245;BMP280;25963;42.694;23.600;2024-01-30T10:46:31;97072.69;;;2.12
40245;BMP280;25963;42.694;23.600;2024-01-30T10:48:58;97129.91;;;2.73
40245;BMP280;25963;42.694;23.600;2024-01-30T10:51:27;97125.81;;;2.82
40245;BMP280;25963;42.694;23.600;2024-01-30T10:53:53;97124.28;;;2.78
40245;BMP280;25963;42.694;23.600;2024-01-30T10:56:21;97128.84;;;2.84
40245;BMP280;25963;42.694;23.600;2024-01-30T10:58:56;97111.91;;;2.92
40245;BMP280;25963;42.694;23.600;2024-01-30T11:01:22;97112.28;;;2.94
40245;BMP280;25963;42.694;23.600;2024-01-30T11:03:57;97126.91;;;2.74
40245;BMP280;25963;42.694;23.600;2024-01-30T11:06:25;97122.41;;;2.78
40245;BMP280;25963;42.694;23.600;2024-01-30T11:09:05;97109.63;;;2.84
40245;BMP280;25963;42.694;23.600;2024-01-30T11:11:59;97106.25;;;2.87
40245;BMP280;25963;42.694;23.600;2024-01-30T11:14:26;97107.03;;;3.01
40245;BMP280;25963;42.694;23.600;2024-01-30T11:16:51;97102.56;;;3.23
40245;BMP280;25963;42.694;23.600;2024-01-30T11:19:24;97090.53;;;3.22
40245;BMP280;25963;42.694;23.600;2024-01-30T11:21:55;97103.31;;;3.13
40245;BMP280;25963;42.694;23.600;2024-01-30T11:24:22;97105.50;;;2.93
40245;BMP280;25963;42.694;23.600;2024-01-30T11:26:49;97107.44;;;3.03
40245;BMP280;25963;42.694;23.600;2024-01-30T11:29:17;97106.00;;;3.27
40245;BMP280;25963;42.694;23.600;2024-01-30T11:31:52;97110.56;;;3.34
40245;BMP280;25963;42.694;23.600;2024-01-30T11:34:20;97090.56;;;3.40
40245;BMP280;25963;42.694;23.600;2024-01-30T11:36:51;97092.81;;;3.27
40245;BMP280;25963;42.694;23.600;2024-01-30T11:39:19;97100.00;;;3.37
40245;BMP280;25963;42.694;23.600;2024-01-30T11:41:45;97086.06;;;3.37
40245;BMP280;25963;42.694;23.600;2024-01-30T11:44:11;97088.69;;;3.47
40245;BMP280;25963;42.694;23.600;2024-01-30T11:46:36;97080.75;;;3.51
40245;BMP280;25963;42.694;23.600;2024-01-30T11:49:02;97085.69;;;3.56
40245;BMP280;25963;42.694;23.600;2024-01-30T11:51:27;97079.63;;;3.38
40245;BMP280;25963;42.694;23.600;2024-01-30T11:53:57;97068.31;;;3.20
40245;BMP280;25963;42.694;23.600;2024-01-30T11:56:23;97042.22;;;3.04
40245;BMP280;25963;42.694;23.600;2024-01-30T11:58:49;97029.84;;;3.12
40245;BMP280;25963;42.694;23.600;2024-01-30T12:01:16;97078.53;;;3.63
40245;BMP280;25963;42.694;23.600;2024-01-30T12:03:42;97070.59;;;3.60
40245;BMP280;25963;42.694;23.600;2024-01-30T12:06:08;97063.03;;;3.51
40245;BMP280;25963;42.694;23.600;2024-01-30T12:08:33;96970.59;;;2.98
40245;BMP280;25963;42.694;23.600;2024-01-30T12:10:59;97058.16;;;3.67
40245;BMP280;25963;42.694;23.600;2024-01-30T12:13:28;97062.69;;;3.70
40245;BMP280;25963;42.694;23.600;2024-01-30T12:15:54;97044.59;;;3.69
40245;BMP280;25963;42.694;23.600;2024-01-30T12:18:20;97055.91;;;3.69
40245;BMP280;25963;42.694;23.600;2024-01-30T12:20:45;97060.44;;;3.72
40245;BMP280;25963;42.694;23.600;2024-01-30T12:23:12;97014.41;;;3.52
40245;BMP280;25963;42.694;23.600;2024-01-30T12:25:38;97052.50;;;3.69
40245;BMP280;25963;42.694;23.600;2024-01-30T12:28:03;97049.84;;;3.62
40245;BMP280;25963;42.694;23.600;2024-01-30T12:30:29;97035.53;;;3.66
40245;BMP280;25963;42.694;23.600;2024-01-30T12:32:55;96993.25;;;3.24
40245;BMP280;25963;42.694;23.600;2024-01-30T12:35:20;97023.84;;;3.60
40245;BMP280;25963;42.694;23.600;2024-01-30T12:37:47;97032.13;;;3.66
40245;BMP280;25963;42.694;23.600;2024-01-30T12:40:14;97025.72;;;3.63
40245;BMP280;25963;42.694;23.600;2024-01-30T12:42:40;97040.81;;;3.63
40245;BMP280;25963;42.694;23.600;2024-01-30T12:45:07;97028.75;;;3.44
40245;BMP280;25963;42.694;23.600;2024-01-30T12:47:32;97016.25;;;3.27
40245;BMP280;25963;42.694;23.600;2024-01-30T12:49:58;96954.03;;;2.91
40245;BMP280;25963;42.694;23.600;2024-01-30T12:52:24;97019.69;;;3.38
40245;BMP280;25963;42.694;23.600;2024-01-30T12:54:50;97013.25;;;3.36
40245;BMP280;25963;42.694;23.600;2024-01-30T12:57:16;96982.72;;;3.35
40245;BMP280;25963;42.694;23.600;2024-01-30T12:59:42;96998.19;;;3.43
40245;BMP280;25963;42.694;23.600;2024-01-30T13:02:08;97007.63;;;3.41
40245;BMP280;25963;42.694;23.600;2024-01-30T13:04:34;97009.47;;;3.23
40245;BMP280;25963;42.694;23.600;2024-01-30T13:06:59;97004.59;;;3.14
40245;BMP280;25963;42.694;23.600;2024-01-30T13:09:26;97002.31;;;3.27
40245;BMP280;25963;42.694;23.600;2024-01-30T13:11:52;96948.00;;;2.97
40245;BMP280;25963;42.694;23.600;2024-01-30T13:14:17;96952.56;;;3.18
40245;BMP280;25963;42.694;23.600;2024-01-30T13:16:43;96896.00;;;2.73
40245;BMP280;25963;42.694;23.600;2024-01-30T13:19:08;96999.34;;;3.42
40245;BMP280;25963;42.694;23.600;2024-01-30T13:21:34;96957.84;;;3.11
40245;BMP280;25963;42.694;23.600;2024-01-30T13:23:59;96906.91;;;2.72
40245;BMP280;25963;42.694;23.600;2024-01-30T13:26:25;96992.91;;;3.43
40245;BMP280;25963;42.694;23.600;2024-01-30T13:28:50;96991.41;;;3.42
40245;BMP280;25963;42.694;23.600;2024-01-30T13:31:16;96949.13;;;3.07
40245;BMP280;25963;42.694;23.600;2024-01-30T13:33:41;97002.31;;;3.37
40245;BMP280;25963;42.694;23.600;2024-01-30T13:36:08;96958.56;;;3.22
40245;BMP280;25963;42.694;23.600;2024-01-30T13:38:34;96991.00;;;3.47
40245;BMP280;25963;42.694;23.600;2024-01-30T13:41:00;96992.91;;;3.40
40245;BMP280;25963;42.694;23.600;2024-01-30T13:43:26;96905.03;;;2.76
40245;BMP280;25963;42.694;23.600;2024-01-30T13:45:51;96978.59;;;3.20
40245;BMP280;25963;42.694;23.600;2024-01-30T13:48:17;96992.53;;;3.17
40245;BMP280;25963;42.694;23.600;2024-01-30T13:50:42;96996.28;;;3.19
40245;BMP280;25963;42.694;23.600;2024-01-30T13:53:08;96987.59;;;3.22
40245;BMP280;25963;42.694;23.600;2024-01-30T13:55:34;96997.78;;;3.34